sensor_id;sensor_type;location;lat;lon;timestamp;P1;durP1;ratioP1;P2;durP2;ratioP2
66380;SDS011;53177;52.648;1.214;2022-11-20T00:00:45;47.13;;;23.70;;
66380;SDS011;53177;52.648;1.214;2022-11-20T00:03:10;48.57;;;25.03;;
66380;SDS011;53177;52.648;1.214;2022-11-20T00:05:35;52.15;;;26.02;;
66380;SDS011;53177;52.648;1.214;2022-11-20T00:08:01;55.77;;;25.33;;
66380;SDS011;53177;52.648;1.214;2022-11-20T00:10:27;56.67;;;26.00;;
66380;SDS011;53177;52.648;1.214;2022-11-20T00:12:52;53.75;;;25.63;;
66380;SDS011;53177;52.648;1.214;2022-11-20T00:15:18;48.83;;;23.60;;
66380;SDS011;53177;52.648;1.214;2022-11-20T00:17:43;48.80;;;23.00;;
66380;SDS011;53177;52.648;1.214;2022-11-20T00:20:09;55.03;;;25.47;;
66380;SDS011;53177;52.648;1.214;2022-11-20T00:22:35;49.10;;;24.85;;
66380;SDS011;53177;52.648;1.214;2022-11-20T00:25:00;46.13;;;22.67;;
66380;SDS011;53177;52.648;1.214;2022-11-20T00:27:26;54.40;;;23.85;;
66380;SDS011;53177;52.648;1.214;2022-11-20T00:29:51;48.53;;;22.03;;
66380;SDS011;53177;52.648;1.214;2022-11-20T00:32:16;43.77;;;22.07;;
66380;SDS011;53177;52.648;1.214;2022-11-20T00:34:42;46.23;;;22.53;;
66380;SDS011;53177;52.648;1.214;2022-11-20T00:37:07;47.80;;;22.77;;
66380;SDS011;53177;52.648;1.214;2022-11-20T00:39:33;45.33;;;23.50;;
66380;SDS011;53177;52.648;1.214;2022-11-20T00:41:58;50.33;;;23.30;;
66380;SDS011;53177;52.648;1.214;2022-11-20T00:44:23;45.08;;;21.80;;
66380;SDS011;53177;52.648;1.214;2022-11-20T00:46:49;50.60;;;22.20;;
66380;SDS011;53177;52.648;1.214;2022-11-20T00:49:14;45.27;;;21.63;;
66380;SDS011;53177;52.648;1.214;2022-11-20T00:51:40;43.37;;;20.77;;
66380;SDS011;53177;52.648;1.214;2022-11-20T00:54:05;47.17;;;21.17;;
66380;SDS011;53177;52.648;1.214;2022-11-20T00:56:30;41.20;;;19.57;;
66380;SDS011;53177;52.648;1.214;2022-11-20T00:58:58;43.55;;;19.67;;
66380;SDS011;53177;52.648;1.214;2022-11-20T01:01:25;40.17;;;19.70;;
66380;SDS011;53177;52.648;1.214;2022-11-20T01:03:52;41.47;;;20.40;;
66380;SDS011;53177;52.648;1.214;2022-11-20T01:06:20;37.30;;;19.35;;
66380;SDS011;53177;52.648;1.214;2022-11-20T01:08:48;36.75;;;18.35;;
66380;SDS011;53177;52.648;1.214;2022-11-20T01:11:47;33.83;;;16.88;;
66380;SDS011;53177;52.648;1.214;2022-11-20T01:14:09;37.53;;;18.47;;
66380;SDS011;53177;52.648;1.214;2022-11-20T01:16:40;40.17;;;18.05;;
66380;SDS011;53177;52.648;1.214;2022-11-20T01:19:09;35.42;;;18.38;;
66380;SDS011;53177;52.648;1.214;2022-11-20T01:21:38;32.17;;;15.98;;
66380;SDS011;53177;52.648;1.214;2022-11-20T01:24:05;31.35;;;16.08;;
66380;SDS011;53177;52.648;1.214;2022-11-20T01:26:33;30.60;;;15.97;;
66380;SDS011;53177;52.648;1.214;2022-11-20T01:29:02;31.52;;;15.93;;
66380;SDS011;53177;52.648;1.214;2022-11-20T01:31:37;33.20;;;15.90;;
66380;SDS011;53177;52.648;1.214;2022-11-20T01:34:04;29.92;;;14.85;;
66380;SDS011;53177;52.648;1.214;2022-11-20T01:36:32;31.40;;;15.57;;
66380;SDS011;53177;52.648;1.214;2022-11-20T01:39:01;27.80;;;14.07;;
66380;SDS011;53177;52.648;1.214;2022-11-20T01:41:31;31.17;;;15.23;;
66380;SDS011;53177;52.648;1.214;2022-11-20T01:44:18;26.63;;;14.10;;
66380;SDS011;53177;52.648;1.214;2022-11-20T01:46:59;27.23;;;13.70;;
66380;SDS011;53177;52.648;1.214;2022-11-20T01:49:33;25.35;;;12.52;;
66380;SDS011;53177;52.648;1.214;2022-11-20T01:52:15;28.50;;;13.70;;
66380;SDS011;53177;52.648;1.214;2022-11-20T01:54:49;29.02;;;13.90;;
66380;SDS011;53177;52.648;1.214;2022-11-20T01:57:19;27.30;;;13.02;;
66380;SDS011;53177;52.648;1.214;2022-11-20T01:59:49;25.02;;;12.38;;
66380;SDS011;53177;52.648;1.214;2022-11-20T02:02:21;24.92;;;11.50;;
66380;SDS011;53177;52.648;1.214;2022-11-20T02:04:49;25.47;;;12.47;;
66380;SDS011;53177;52.648;1.214;2022-11-20T02:07:19;26.70;;;12.07;;
66380;SDS011;53177;52.648;1.214;2022-11-20T02:09:46;25.23;;;12.05;;
66380;SDS011;53177;52.648;1.214;2022-11-20T02:12:11;22.83;;;11.57;;
66380;SDS011;53177;52.648;1.214;2022-11-20T02:14:56;25.38;;;10.88;;
66380;SDS011;53177;52.648;1.214;2022-11-20T02:17:22;23.03;;;10.90;;
66380;SDS011;53177;52.648;1.214;2022-11-20T02:19:49;24.20;;;10.90;;
66380;SDS011;53177;52.648;1.214;2022-11-20T02:22:16;24.07;;;11.37;;
66380;SDS011;53177;52.648;1.214;2022-11-20T02:24:47;22.20;;;10.73;;
66380;SDS011;53177;52.648;1.214;2022-11-20T02:27:14;22.45;;;10.75;;
66380;SDS011;53177;52.648;1.214;2022-11-20T02:29:51;24.27;;;10.80;;
66380;SDS011;53177;52.648;1.214;2022-11-20T02:32:21;26.90;;;11.40;;
66380;SDS011;53177;52.648;1.214;2022-11-20T02:34:49;25.23;;;11.18;;
66380;SDS011;53177;52.648;1.214;2022-11-20T02:37:14;27.63;;;12.13;;
66380;SDS011;53177;52.648;1.214;2022-11-20T02:39:40;23.75;;;10.82;;
66380;SDS011;53177;52.648;1.214;2022-11-20T02:42:07;23.80;;;11.07;;
66380;SDS011;53177;52.648;1.214;2022-11-20T02:44:32;27.57;;;11.47;;
66380;SDS011;53177;52.648;1.214;2022-11-20T02:46:58;29.13;;;12.70;;
66380;SDS011;53177;52.648;1.214;2022-11-20T02:49:24;26.00;;;12.27;;
66380;SDS011;53177;52.648;1.214;2022-11-20T02:51:49;29.05;;;12.70;;
66380;SDS011;53177;52.648;1.214;2022-11-20T02:54:15;25.43;;;11.63;;
66380;SDS011;53177;52.648;1.214;2022-11-20T02:56:40;27.77;;;12.47;;
66380;SDS011;53177;52.648;1.214;2022-11-20T02:59:06;27.10;;;12.17;;
66380;SDS011;53177;52.648;1.214;2022-11-20T03:01:31;26.13;;;12.13;;
66380;SDS011;53177;52.648;1.214;2022-11-20T03:03:57;30.20;;;12.93;;
66380;SDS011;53177;52.648;1.214;2022-11-20T03:06:22;29.10;;;13.13;;
66380;SDS011;53177;52.648;1.214;2022-11-20T03:08:48;29.13;;;12.93;;
66380;SDS011;53177;52.648;1.214;2022-11-20T03:11:13;32.27;;;14.13;;
66380;SDS011;53177;52.648;1.214;2022-11-20T03:13:39;29.50;;;13.43;;
66380;SDS011;53177;52.648;1.214;2022-11-20T03:16:12;32.17;;;13.18;;
66380;SDS011;53177;52.648;1.214;2022-11-20T03:18:39;32.33;;;15.10;;
66380;SDS011;53177;52.648;1.214;2022-11-20T03:21:06;32.50;;;14.43;;
66380;SDS011;53177;52.648;1.214;2022-11-20T03:23:33;31.65;;;14.10;;
66380;SDS011;53177;52.648;1.214;2022-11-20T03:26:09;35.80;;;15.38;;
66380;SDS011;53177;52.648;1.214;2022-11-20T03:28:51;30.97;;;13.23;;
66380;SDS011;53177;52.648;1.214;2022-11-20T03:31:19;31.80;;;14.23;;
66380;SDS011;53177;52.648;1.214;2022-11-20T03:33:49;35.17;;;14.50;;
66380;SDS011;53177;52.648;1.214;2022-11-20T03:36:15;37.22;;;15.30;;
66380;SDS011;53177;52.648;1.214;2022-11-20T03:38:42;36.33;;;15.03;;
66380;SDS011;53177;52.648;1.214;2022-11-20T03:41:09;36.65;;;14.88;;
66380;SDS011;53177;52.648;1.214;2022-11-20T03:43:40;38.00;;;14.65;;
66380;SDS011;53177;52.648;1.214;2022-11-20T03:46:05;33.33;;;14.33;;
66380;SDS011;53177;52.648;1.214;2022-11-20T03:48:32;36.60;;;16.27;;
66380;SDS011;53177;52.648;1.214;2022-11-20T03:51:11;34.42;;;15.93;;
66380;SDS011;53177;52.648;1.214;2022-11-20T03:53:39;38.30;;;15.57;;
66380;SDS011;53177;52.648;1.214;2022-11-20T03:56:05;37.70;;;15.82;;
66380;SDS011;53177;52.648;1.214;2022-11-20T03:58:32;37.17;;;16.30;;
66380;SDS011;53177;52.648;1.214;2022-11-20T04:01:04;38.28;;;16.27;;
66380;SDS011;53177;52.648;1.214;2022-11-20T04:03:32;37.20;;;15.80;;
66380;SDS011;53177;52.648;1.214;2022-11-20T04:06:05;36.22;;;15.65;;
66380;SDS011;53177;52.648;1.214;2022-11-20T04:08:32;40.10;;;16.65;;
66380;SDS011;53177;52.648;1.214;2022-11-20T04:11:07;33.80;;;14.93;;
66380;SDS011;53177;52.648;1.214;2022-11-20T04:13:34;40.22;;;16.70;;
66380;SDS011;53177;52.648;1.214;2022-11-20T04:15:59;39.67;;;16.70;;
66380;SDS011;53177;52.648;1.214;2022-11-20T04:18:25;39.30;;;17.13;;
66380;SDS011;53177;52.648;1.214;2022-11-20T04:20:50;38.72;;;15.70;;
66380;SDS011;53177;52.648;1.214;2022-11-20T04:23:16;41.07;;;17.40;;
66380;SDS011;53177;52.648;1.214;2022-11-20T04:25:41;39.77;;;17.17;;
66380;SDS011;53177;52.648;1.214;2022-11-20T04:28:06;42.07;;;17.43;;
66380;SDS011;53177;52.648;1.214;2022-11-20T04:30:32;39.67;;;17.48;;
66380;SDS011;53177;52.648;1.214;2022-11-20T04:32:57;40.65;;;17.05;;
66380;SDS011;53177;52.648;1.214;2022-11-20T04:35:23;41.90;;;17.57;;
66380;SDS011;53177;52.648;1.214;2022-11-20T04:37:50;41.47;;;18.13;;
66380;SDS011;53177;52.648;1.214;2022-11-20T04:40:17;46.03;;;18.08;;
66380;SDS011;53177;52.648;1.214;2022-11-20T04:42:42;40.80;;;17.53;;
66380;SDS011;53177;52.648;1.214;2022-11-20T04:45:08;38.30;;;16.63;;
66380;SDS011;53177;52.648;1.214;2022-11-20T04:47:33;41.93;;;17.27;;
66380;SDS011;53177;52.648;1.214;2022-11-20T04:49:59;41.07;;;18.00;;
66380;SDS011;53177;52.648;1.214;2022-11-20T04:52:24;38.90;;;16.65;;
66380;SDS011;53177;52.648;1.214;2022-11-20T04:54:50;45.05;;;18.80;;
66380;SDS011;53177;52.648;1.214;2022-11-20T04:57:17;42.83;;;17.70;;
66380;SDS011;53177;52.648;1.214;2022-11-20T04:59:44;45.83;;;18.88;;
66380;SDS011;53177;52.648;1.214;2022-11-20T05:02:09;40.97;;;16.60;;
66380;SDS011;53177;52.648;1.214;2022-11-20T05:04:35;44.28;;;18.45;;
66380;SDS011;53177;52.648;1.214;2022-11-20T05:07:00;43.90;;;18.30;;
66380;SDS011;53177;52.648;1.214;2022-11-20T05:09:26;43.03;;;18.15;;
66380;SDS011;53177;52.648;1.214;2022-11-20T05:11:51;46.70;;;18.27;;
66380;SDS011;53177;52.648;1.214;2022-11-20T05:14:16;47.27;;;18.63;;
66380;SDS011;53177;52.648;1.214;2022-11-20T05:16:42;43.07;;;17.57;;
66380;SDS011;53177;52.648;1.214;2022-11-20T05:19:07;44.60;;;18.30;;
66380;SDS011;53177;52.648;1.214;2022-11-20T05:21:33;46.08;;;18.45;;
66380;SDS011;53177;52.648;1.214;2022-11-20T05:23:58;47.93;;;18.77;;
66380;SDS011;53177;52.648;1.214;2022-11-20T05:26:24;48.17;;;19.07;;
66380;SDS011;53177;52.648;1.214;2022-11-20T05:28:49;51.00;;;18.67;;
66380;SDS011;53177;52.648;1.214;2022-11-20T05:31:19;49.50;;;19.10;;
66380;SDS011;53177;52.648;1.214;2022-11-20T05:33:47;44.65;;;18.05;;
66380;SDS011;53177;52.648;1.214;2022-11-20T05:36:13;49.43;;;19.63;;
66380;SDS011;53177;52.648;1.214;2022-11-20T05:38:39;48.40;;;19.58;;
66380;SDS011;53177;52.648;1.214;2022-11-20T05:41:10;48.03;;;18.40;;
66380;SDS011;53177;52.648;1.214;2022-11-20T05:43:38;49.45;;;18.90;;
66380;SDS011;53177;52.648;1.214;2022-11-20T05:46:05;46.77;;;19.17;;
66380;SDS011;53177;52.648;1.214;2022-11-20T05:48:32;50.13;;;19.33;;
66380;SDS011;53177;52.648;1.214;2022-11-20T05:50:59;50.50;;;19.67;;
66380;SDS011;53177;52.648;1.214;2022-11-20T05:53:26;49.95;;;18.23;;
66380;SDS011;53177;52.648;1.214;2022-11-20T05:55:58;47.83;;;17.97;;
66380;SDS011;53177;52.648;1.214;2022-11-20T05:58:25;51.45;;;19.00;;
66380;SDS011;53177;52.648;1.214;2022-11-20T06:00:50;51.17;;;19.00;;
66380;SDS011;53177;52.648;1.214;2022-11-20T06:03:16;50.75;;;19.75;;
66380;SDS011;53177;52.648;1.214;2022-11-20T06:05:41;52.50;;;19.50;;
66380;SDS011;53177;52.648;1.214;2022-11-20T06:08:06;55.23;;;20.73;;
66380;SDS011;53177;52.648;1.214;2022-11-20T06:10:32;53.63;;;20.37;;
66380;SDS011;53177;52.648;1.214;2022-11-20T06:12:57;51.10;;;19.63;;
66380;SDS011;53177;52.648;1.214;2022-11-20T06:15:23;51.88;;;20.45;;
66380;SDS011;53177;52.648;1.214;2022-11-20T06:17:51;52.83;;;19.97;;
66380;SDS011;53177;52.648;1.214;2022-11-20T06:20:18;54.72;;;20.00;;
66380;SDS011;53177;52.648;1.214;2022-11-20T06:22:45;55.60;;;20.40;;
66380;SDS011;53177;52.648;1.214;2022-11-20T06:25:11;56.25;;;20.20;;
66380;SDS011;53177;52.648;1.214;2022-11-20T06:27:36;53.27;;;18.93;;
66380;SDS011;53177;52.648;1.214;2022-11-20T06:30:02;55.23;;;19.53;;
66380;SDS011;53177;52.648;1.214;2022-11-20T06:32:29;56.80;;;19.90;;
66380;SDS011;53177;52.648;1.214;2022-11-20T06:34:54;51.73;;;18.37;;
66380;SDS011;53177;52.648;1.214;2022-11-20T06:37:20;55.77;;;19.63;;
66380;SDS011;53177;52.648;1.214;2022-11-20T06:39:45;51.88;;;19.05;;
66380;SDS011;53177;52.648;1.214;2022-11-20T06:42:10;54.38;;;19.40;;
66380;SDS011;53177;52.648;1.214;2022-11-20T06:44:36;49.67;;;17.83;;
66380;SDS011;53177;52.648;1.214;2022-11-20T06:47:01;48.70;;;18.00;;
66380;SDS011;53177;52.648;1.214;2022-11-20T06:49:27;50.37;;;17.50;;
66380;SDS011;53177;52.648;1.214;2022-11-20T06:51:53;51.33;;;18.00;;
66380;SDS011;53177;52.648;1.214;2022-11-20T06:54:21;51.05;;;17.63;;
66380;SDS011;53177;52.648;1.214;2022-11-20T06:56:47;46.73;;;16.47;;
66380;SDS011;53177;52.648;1.214;2022-11-20T06:59:13;45.70;;;17.13;;
66380;SDS011;53177;52.648;1.214;2022-11-20T07:01:39;43.42;;;16.25;;
66380;SDS011;53177;52.648;1.214;2022-11-20T07:04:08;49.03;;;17.02;;
66380;SDS011;53177;52.648;1.214;2022-11-20T07:06:42;40.88;;;15.85;;
66380;SDS011;53177;52.648;1.214;2022-11-20T07:09:14;46.25;;;15.40;;
66380;SDS011;53177;52.648;1.214;2022-11-20T07:11:41;36.08;;;13.85;;
66380;SDS011;53177;52.648;1.214;2022-11-20T07:14:06;35.40;;;13.70;;
66380;SDS011;53177;52.648;1.214;2022-11-20T07:16:32;35.97;;;13.20;;
66380;SDS011;53177;52.648;1.214;2022-11-20T07:18:57;37.70;;;13.23;;
66380;SDS011;53177;52.648;1.214;2022-11-20T07:21:23;34.90;;;13.02;;
66380;SDS011;53177;52.648;1.214;2022-11-20T07:23:48;34.22;;;11.57;;
66380;SDS011;53177;52.648;1.214;2022-11-20T07:26:13;34.40;;;12.47;;
66380;SDS011;53177;52.648;1.214;2022-11-20T07:28:39;31.73;;;11.87;;
66380;SDS011;53177;52.648;1.214;2022-11-20T07:31:09;34.73;;;12.60;;
66380;SDS011;53177;52.648;1.214;2022-11-20T07:33:37;28.80;;;11.07;;
66380;SDS011;53177;52.648;1.214;2022-11-20T07:36:03;31.60;;;11.52;;
66380;SDS011;53177;52.648;1.214;2022-11-20T07:38:29;32.27;;;11.23;;
66380;SDS011;53177;52.648;1.214;2022-11-20T07:40:55;31.92;;;10.32;;
66380;SDS011;53177;52.648;1.214;2022-11-20T07:43:22;27.17;;;9.57;;
66380;SDS011;53177;52.648;1.214;2022-11-20T07:45:49;28.45;;;10.32;;
66380;SDS011;53177;52.648;1.214;2022-11-20T07:48:14;31.80;;;10.37;;
66380;SDS011;53177;52.648;1.214;2022-11-20T07:50:40;27.00;;;9.40;;
66380;SDS011;53177;52.648;1.214;2022-11-20T07:53:05;29.30;;;10.03;;
66380;SDS011;53177;52.648;1.214;2022-11-20T07:55:31;28.50;;;9.13;;
66380;SDS011;53177;52.648;1.214;2022-11-20T07:57:57;24.30;;;8.43;;
66380;SDS011;53177;52.648;1.214;2022-11-20T08:00:24;28.33;;;8.82;;
66380;SDS011;53177;52.648;1.214;2022-11-20T08:02:51;25.23;;;8.77;;
66380;SDS011;53177;52.648;1.214;2022-11-20T08:05:17;25.03;;;8.43;;
66380;SDS011;53177;52.648;1.214;2022-11-20T08:07:43;25.67;;;8.47;;
66380;SDS011;53177;52.648;1.214;2022-11-20T08:10:09;22.80;;;8.30;;
66380;SDS011;53177;52.648;1.214;2022-11-20T08:12:43;26.02;;;8.30;;
66380;SDS011;53177;52.648;1.214;2022-11-20T08:15:30;18.98;;;7.40;;
66380;SDS011;53177;52.648;1.214;2022-11-20T08:18:01;24.30;;;7.83;;
66380;SDS011;53177;52.648;1.214;2022-11-20T08:20:34;22.27;;;7.60;;
66380;SDS011;53177;52.648;1.214;2022-11-20T08:23:03;22.40;;;8.50;;
66380;SDS011;53177;52.648;1.214;2022-11-20T08:25:30;20.67;;;7.35;;
66380;SDS011;53177;52.648;1.214;2022-11-20T08:28:04;23.40;;;7.53;;
66380;SDS011;53177;52.648;1.214;2022-11-20T08:30:31;22.25;;;6.93;;
66380;SDS011;53177;52.648;1.214;2022-11-20T08:33:00;18.85;;;6.97;;
66380;SDS011;53177;52.648;1.214;2022-11-20T08:35:27;22.92;;;7.20;;
66380;SDS011;53177;52.648;1.214;2022-11-20T08:37:53;20.00;;;6.73;;
66380;SDS011;53177;52.648;1.214;2022-11-20T08:40:19;18.93;;;6.43;;
66380;SDS011;53177;52.648;1.214;2022-11-20T08:42:48;20.63;;;6.15;;
66380;SDS011;53177;52.648;1.214;2022-11-20T08:45:15;18.08;;;6.70;;
66380;SDS011;53177;52.648;1.214;2022-11-20T08:47:42;18.48;;;6.20;;
66380;SDS011;53177;52.648;1.214;2022-11-20T08:50:08;19.30;;;6.57;;
66380;SDS011;53177;52.648;1.214;2022-11-20T08:52:34;19.00;;;6.60;;
66380;SDS011;53177;52.648;1.214;2022-11-20T08:54:59;17.50;;;5.80;;
66380;SDS011;53177;52.648;1.214;2022-11-20T08:57:24;19.03;;;6.13;;
66380;SDS011;53177;52.648;1.214;2022-11-20T08:59:50;16.67;;;6.07;;
66380;SDS011;53177;52.648;1.214;2022-11-20T09:02:15;15.63;;;4.87;;
66380;SDS011;53177;52.648;1.214;2022-11-20T09:04:41;14.50;;;5.53;;
66380;SDS011;53177;52.648;1.214;2022-11-20T09:07:06;14.45;;;5.47;;
66380;SDS011;53177;52.648;1.214;2022-11-20T09:09:31;15.30;;;5.30;;
66380;SDS011;53177;52.648;1.214;2022-11-20T09:11:57;15.97;;;5.67;;
66380;SDS011;53177;52.648;1.214;2022-11-20T09:14:23;14.43;;;4.93;;
66380;SDS011;53177;52.648;1.214;2022-11-20T09:16:53;16.30;;;5.10;;
66380;SDS011;53177;52.648;1.214;2022-11-20T09:19:23;16.15;;;5.47;;
66380;SDS011;53177;52.648;1.214;2022-11-20T09:21:49;15.57;;;4.93;;
66380;SDS011;53177;52.648;1.214;2022-11-20T09:24:14;19.70;;;5.37;;
66380;SDS011;53177;52.648;1.214;2022-11-20T09:26:39;13.30;;;4.80;;
66380;SDS011;53177;52.648;1.214;2022-11-20T09:29:05;16.00;;;5.20;;
66380;SDS011;53177;52.648;1.214;2022-11-20T09:31:31;15.77;;;5.17;;
66380;SDS011;53177;52.648;1.214;2022-11-20T09:33:56;14.93;;;5.20;;
66380;SDS011;53177;52.648;1.214;2022-11-20T09:36:22;15.18;;;5.28;;
66380;SDS011;53177;52.648;1.214;2022-11-20T09:38:47;16.67;;;6.33;;
66380;SDS011;53177;52.648;1.214;2022-11-20T09:43:58;17.50;;;5.53;;
66380;SDS011;53177;52.648;1.214;2022-11-20T09:49:23;15.13;;;5.63;;
66380;SDS011;53177;52.648;1.214;2022-11-20T09:54:58;16.13;;;5.53;;
66380;SDS011;53177;52.648;1.214;2022-11-20T09:57:31;15.43;;;5.50;;
66380;SDS011;53177;52.648;1.214;2022-11-20T10:00:00;20.40;;;6.30;;
66380;SDS011;53177;52.648;1.214;2022-11-20T10:10:46;17.47;;;6.27;;
66380;SDS011;53177;52.648;1.214;2022-11-20T10:24:48;24.27;;;10.30;;
66380;SDS011;53177;52.648;1.214;2022-11-20T10:30:12;25.83;;;9.93;;
66380;SDS011;53177;52.648;1.214;2022-11-20T10:32:43;24.52;;;9.40;;
66380;SDS011;53177;52.648;1.214;2022-11-20T10:37:49;25.40;;;10.03;;
66380;SDS011;53177;52.648;1.214;2022-11-20T10:43:16;23.17;;;10.00;;
66380;SDS011;53177;52.648;1.214;2022-11-20T10:45:48;24.80;;;10.35;;
66380;SDS011;53177;52.648;1.214;2022-11-20T10:48:22;23.73;;;9.60;;
66380;SDS011;53177;52.648;1.214;2022-11-20T10:54:08;24.25;;;9.55;;
66380;SDS011;53177;52.648;1.214;2022-11-20T10:57:11;19.13;;;9.20;;
66380;SDS011;53177;52.648;1.214;2022-11-20T11:02:19;20.48;;;9.65;;
66380;SDS011;53177;52.648;1.214;2022-11-20T11:04:47;24.20;;;9.63;;
66380;SDS011;53177;52.648;1.214;2022-11-20T11:09:44;21.63;;;9.52;;
66380;SDS011;53177;52.648;1.214;2022-11-20T11:12:18;24.58;;;9.02;;
66380;SDS011;53177;52.648;1.214;2022-11-20T11:14:47;20.60;;;9.13;;
66380;SDS011;53177;52.648;1.214;2022-11-20T11:20:06;20.40;;;8.32;;
66380;SDS011;53177;52.648;1.214;2022-11-20T11:22:55;20.50;;;8.27;;
66380;SDS011;53177;52.648;1.214;2022-11-20T11:27:56;21.52;;;8.48;;
66380;SDS011;53177;52.648;1.214;2022-11-20T11:30:26;20.77;;;8.73;;
66380;SDS011;53177;52.648;1.214;2022-11-20T11:33:05;21.65;;;9.25;;
66380;SDS011;53177;52.648;1.214;2022-11-20T11:35:47;22.55;;;8.88;;
66380;SDS011;53177;52.648;1.214;2022-11-20T11:38:16;21.73;;;8.98;;
66380;SDS011;53177;52.648;1.214;2022-11-20T11:40:44;21.70;;;8.90;;
66380;SDS011;53177;52.648;1.214;2022-11-20T11:43:22;21.60;;;8.38;;
66380;SDS011;53177;52.648;1.214;2022-11-20T11:46:20;19.60;;;8.50;;
66380;SDS011;53177;52.648;1.214;2022-11-20T11:54:27;22.52;;;8.55;;
66380;SDS011;53177;52.648;1.214;2022-11-20T11:57:00;21.23;;;8.20;;
66380;SDS011;53177;52.648;1.214;2022-11-20T11:59:49;22.40;;;8.50;;
66380;SDS011;53177;52.648;1.214;2022-11-20T12:05:12;20.50;;;9.13;;
66380;SDS011;53177;52.648;1.214;2022-11-20T12:07:41;21.83;;;7.88;;
66380;SDS011;53177;52.648;1.214;2022-11-20T12:16:00;22.98;;;7.70;;
66380;SDS011;53177;52.648;1.214;2022-11-20T12:18:27;16.95;;;7.18;;
66380;SDS011;53177;52.648;1.214;2022-11-20T12:40:44;18.55;;;6.63;;
66380;SDS011;53177;52.648;1.214;2022-11-20T12:43:21;19.13;;;6.40;;
66380;SDS011;53177;52.648;1.214;2022-11-20T13:00:11;12.90;;;5.18;;
66380;SDS011;53177;52.648;1.214;2022-11-20T13:05:21;11.47;;;4.10;;
66380;SDS011;53177;52.648;1.214;2022-11-20T13:07:57;16.30;;;4.38;;
66380;SDS011;53177;52.648;1.214;2022-11-20T13:16:10;14.88;;;3.80;;
66380;SDS011;53177;52.648;1.214;2022-11-20T13:19:01;12.93;;;3.50;;
66380;SDS011;53177;52.648;1.214;2022-11-20T13:21:36;16.23;;;3.28;;
66380;SDS011;53177;52.648;1.214;2022-11-20T13:26:43;13.63;;;2.70;;
66380;SDS011;53177;52.648;1.214;2022-11-20T13:29:11;17.33;;;3.10;;
66380;SDS011;53177;52.648;1.214;2022-11-20T13:31:43;16.58;;;2.70;;
66380;SDS011;53177;52.648;1.214;2022-11-20T13:34:14;12.23;;;2.55;;
66380;SDS011;53177;52.648;1.214;2022-11-20T13:36:50;15.50;;;3.10;;
66380;SDS011;53177;52.648;1.214;2022-11-20T13:39:50;15.10;;;2.60;;
66380;SDS011;53177;52.648;1.214;2022-11-20T13:44:42;13.95;;;2.70;;
66380;SDS011;53177;52.648;1.214;2022-11-20T13:47:24;11.65;;;3.08;;
66380;SDS011;53177;52.648;1.214;2022-11-20T13:49:51;13.35;;;2.40;;
66380;SDS011;53177;52.648;1.214;2022-11-20T13:55:25;11.98;;;2.28;;
66380;SDS011;53177;52.648;1.214;2022-11-20T14:00:27;18.05;;;3.03;;
66380;SDS011;53177;52.648;1.214;2022-11-20T14:05:34;13.23;;;2.43;;
66380;SDS011;53177;52.648;1.214;2022-11-20T14:08:04;12.18;;;2.22;;
66380;SDS011;53177;52.648;1.214;2022-11-20T14:10:31;15.18;;;2.50;;
66380;SDS011;53177;52.648;1.214;2022-11-20T14:12:57;15.43;;;2.87;;
66380;SDS011;53177;52.648;1.214;2022-11-20T14:15:30;15.90;;;2.25;;
66380;SDS011;53177;52.648;1.214;2022-11-20T14:17:58;12.15;;;2.03;;
66380;SDS011;53177;52.648;1.214;2022-11-20T14:20:29;11.07;;;2.13;;
66380;SDS011;53177;52.648;1.214;2022-11-20T14:22:56;8.90;;;2.05;;
66380;SDS011;53177;52.648;1.214;2022-11-20T14:25:24;13.52;;;2.00;;
66380;SDS011;53177;52.648;1.214;2022-11-20T14:27:57;8.77;;;1.92;;
66380;SDS011;53177;52.648;1.214;2022-11-20T14:33:11;11.03;;;1.83;;
66380;SDS011;53177;52.648;1.214;2022-11-20T14:35:45;10.70;;;1.77;;
66380;SDS011;53177;52.648;1.214;2022-11-20T14:38:19;9.93;;;1.70;;
66380;SDS011;53177;52.648;1.214;2022-11-20T14:40:48;10.93;;;2.10;;
66380;SDS011;53177;52.648;1.214;2022-11-20T14:43:26;11.63;;;1.60;;
66380;SDS011;53177;52.648;1.214;2022-11-20T14:45:59;10.10;;;2.45;;
66380;SDS011;53177;52.648;1.214;2022-11-20T14:48:32;15.25;;;3.38;;
66380;SDS011;53177;52.648;1.214;2022-11-20T14:51:03;15.43;;;3.60;;
66380;SDS011;53177;52.648;1.214;2022-11-20T14:53:29;13.00;;;3.20;;
66380;SDS011;53177;52.648;1.214;2022-11-20T14:55:58;13.40;;;3.23;;
66380;SDS011;53177;52.648;1.214;2022-11-20T14:58:26;12.05;;;2.72;;
66380;SDS011;53177;52.648;1.214;2022-11-20T15:00:57;10.93;;;2.17;;
66380;SDS011;53177;52.648;1.214;2022-11-20T15:03:30;11.30;;;2.00;;
66380;SDS011;53177;52.648;1.214;2022-11-20T15:05:56;12.23;;;2.10;;
66380;SDS011;53177;52.648;1.214;2022-11-20T15:08:22;10.37;;;1.90;;
66380;SDS011;53177;52.648;1.214;2022-11-20T15:10:51;15.23;;;2.10;;
66380;SDS011;53177;52.648;1.214;2022-11-20T15:13:20;10.52;;;2.03;;
66380;SDS011;53177;52.648;1.214;2022-11-20T15:15:53;12.00;;;2.20;;
66380;SDS011;53177;52.648;1.214;2022-11-20T15:18:28;11.10;;;2.13;;
66380;SDS011;53177;52.648;1.214;2022-11-20T15:20:56;17.65;;;2.25;;
66380;SDS011;53177;52.648;1.214;2022-11-20T15:23:25;14.05;;;2.30;;
66380;SDS011;53177;52.648;1.214;2022-11-20T15:25:52;13.88;;;2.78;;
66380;SDS011;53177;52.648;1.214;2022-11-20T15:30:47;13.93;;;2.28;;
66380;SDS011;53177;52.648;1.214;2022-11-20T15:33:14;13.38;;;2.40;;
66380;SDS011;53177;52.648;1.214;2022-11-20T15:35:40;12.98;;;2.00;;
66380;SDS011;53177;52.648;1.214;2022-11-20T15:38:06;10.03;;;2.07;;
66380;SDS011;53177;52.648;1.214;2022-11-20T15:40:31;16.38;;;2.53;;
66380;SDS011;53177;52.648;1.214;2022-11-20T15:42:57;11.60;;;2.23;;
66380;SDS011;53177;52.648;1.214;2022-11-20T15:48:03;21.60;;;5.25;;
66380;SDS011;53177;52.648;1.214;2022-11-20T15:50:35;14.60;;;4.07;;
66380;SDS011;53177;52.648;1.214;2022-11-20T15:53:03;14.75;;;4.38;;
66380;SDS011;53177;52.648;1.214;2022-11-20T15:55:29;12.88;;;3.38;;
66380;SDS011;53177;52.648;1.214;2022-11-20T15:57:55;10.70;;;2.83;;
66380;SDS011;53177;52.648;1.214;2022-11-20T16:00:21;12.80;;;3.00;;
66380;SDS011;53177;52.648;1.214;2022-11-20T16:02:47;15.30;;;3.40;;
66380;SDS011;53177;52.648;1.214;2022-11-20T16:05:12;10.80;;;2.57;;
66380;SDS011;53177;52.648;1.214;2022-11-20T16:07:39;12.60;;;3.17;;
66380;SDS011;53177;52.648;1.214;2022-11-20T16:10:05;14.37;;;3.27;;
66380;SDS011;53177;52.648;1.214;2022-11-20T16:12:31;13.93;;;3.10;;
66380;SDS011;53177;52.648;1.214;2022-11-20T16:15:15;18.58;;;3.28;;
66380;SDS011;53177;52.648;1.214;2022-11-20T16:17:58;15.87;;;3.00;;
66380;SDS011;53177;52.648;1.214;2022-11-20T16:20:24;9.73;;;2.08;;
66380;SDS011;53177;52.648;1.214;2022-11-20T16:22:50;14.73;;;2.57;;
66380;SDS011;53177;52.648;1.214;2022-11-20T16:25:15;11.68;;;2.30;;
66380;SDS011;53177;52.648;1.214;2022-11-20T16:27:41;14.73;;;2.40;;
66380;SDS011;53177;52.648;1.214;2022-11-20T16:30:06;18.43;;;3.93;;
66380;SDS011;53177;52.648;1.214;2022-11-20T16:32:32;16.48;;;4.20;;
66380;SDS011;53177;52.648;1.214;2022-11-20T16:34:58;17.83;;;5.17;;
66380;SDS011;53177;52.648;1.214;2022-11-20T16:37:23;16.53;;;4.90;;
66380;SDS011;53177;52.648;1.214;2022-11-20T16:39:49;13.23;;;3.13;;
66380;SDS011;53177;52.648;1.214;2022-11-20T16:42:15;14.75;;;3.35;;
66380;SDS011;53177;52.648;1.214;2022-11-20T16:44:40;13.60;;;3.20;;